sensor_id;sensor_type;location;lat;lon;timestamp;temperature;humidity
20658;DHT22;10488;50.846;4.078;2023-10-13T00:01:58;18.30;99.90
20658;DHT22;10488;50.846;4.078;2023-10-13T00:04:28;18.40;99.90
20658;DHT22;10488;50.846;4.078;2023-10-13T00:06:55;18.30;99.90
20658;DHT22;10488;50.846;4.078;2023-10-13T00:09:25;18.20;99.90
20658;DHT22;10488;50.846;4.078;2023-10-13T00:11:52;18.20;99.90
20658;DHT22;10488;50.846;4.078;2023-10-13T00:14:20;18.20;99.90
20658;DHT22;10488;50.846;4.078;2023-10-13T00:16:56;18.30;99.90
20658;DHT22;10488;50.846;4.078;2023-10-13T00:19:34;18.30;99.90
20658;DHT22;10488;50.846;4.078;2023-10-13T00:22:07;18.50;99.90
20658;DHT22;10488;50.846;4.078;2023-10-13T00:24:38;18.40;99.90
20658;DHT22;10488;50.846;4.078;2023-10-13T00:27:12;18.40;99.90
20658;DHT22;10488;50.846;4.078;2023-10-13T00:29:53;18.40;99.90
20658;DHT22;10488;50.846;4.078;2023-10-13T00:32:39;18.30;99.90
20658;DHT22;10488;50.846;4.078;2023-10-13T00:35:09;18.30;99.90
20658;DHT22;10488;50.846;4.078;2023-10-13T00:37:36;18.30;99.90
20658;DHT22;10488;50.846;4.078;2023-10-13T00:40:08;18.30;99.90
20658;DHT22;10488;50.846;4.078;2023-10-13T00:42:44;18.30;99.90
20658;DHT22;10488;50.846;4.078;2023-10-13T00:45:19;18.20;99.90
20658;DHT22;10488;50.846;4.078;2023-10-13T00:47:45;18.30;99.90
20658;DHT22;10488;50.846;4.078;2023-10-13T00:50:23;18.30;99.90
20658;DHT22;10488;50.846;4.078;2023-10-13T00:52:49;18.20;99.90
20658;DHT22;10488;50.846;4.078;2023-10-13T00:55:19;18.30;99.90
20658;DHT22;10488;50.846;4.078;2023-10-13T00:57:55;18.40;99.90
20658;DHT22;10488;50.846;4.078;2023-10-13T01:00:23;18.40;99.90
20658;DHT22;10488;50.846;4.078;2023-10-13T01:02:54;18.40;99.90
20658;DHT22;10488;50.846;4.078;2023-10-13T01:05:30;18.50;99.90
20658;DHT22;10488;50.846;4.078;2023-10-13T01:08:00;18.30;99.90
20658;DHT22;10488;50.846;4.078;2023-10-13T01:10:27;18.40;99.90
20658;DHT22;10488;50.846;4.078;2023-10-13T01:12:54;18.40;99.90
20658;DHT22;10488;50.846;4.078;2023-10-13T01:15:20;18.50;99.90
20658;DHT22;10488;50.846;4.078;2023-10-13T01:17:47;18.60;99.90
20658;DHT22;10488;50.846;4.078;2023-10-13T01:20:14;18.50;99.90
20658;DHT22;10488;50.846;4.078;2023-10-13T01:22:53;18.50;99.90
20658;DHT22;10488;50.846;4.078;2023-10-13T01:25:25;18.50;99.90
20658;DHT22;10488;50.846;4.078;2023-10-13T01:27:54;18.40;99.90
20658;DHT22;10488;50.846;4.078;2023-10-13T01:30:20;18.50;99.90
20658;DHT22;10488;50.846;4.078;2023-10-13T01:32:50;18.50;99.90
20658;DHT22;10488;50.846;4.078;2023-10-13T01:35:17;18.50;99.90
20658;DHT22;10488;50.846;4.078;2023-10-13T01:37:52;18.50;99.90
20658;DHT22;10488;50.846;4.078;2023-10-13T01:40:18;18.30;99.90
20658;DHT22;10488;50.846;4.078;2023-10-13T01:42:54;18.30;99.90
20658;DHT22;10488;50.846;4.078;2023-10-13T01:45:21;18.40;99.90
20658;DHT22;10488;50.846;4.078;2023-10-13T01:47:46;18.40;99.90
20658;DHT22;10488;50.846;4.078;2023-10-13T01:50:16;18.40;99.90
20658;DHT22;10488;50.846;4.078;2023-10-13T01:52:55;18.40;99.90
20658;DHT22;10488;50.846;4.078;2023-10-13T01:55:40;18.40;99.90
20658;DHT22;10488;50.846;4.078;2023-10-13T01:58:13;18.40;99.90
20658;DHT22;10488;50.846;4.078;2023-10-13T02:00:43;18.30;99.90
20658;DHT22;10488;50.846;4.078;2023-10-13T02:03:10;18.30;99.90
20658;DHT22;10488;50.846;4.078;2023-10-13T02:05:48;18.30;99.90
20658;DHT22;10488;50.846;4.078;2023-10-13T02:08:19;18.30;99.90
20658;DHT22;10488;50.846;4.078;2023-10-13T02:10:53;18.30;99.90
20658;DHT22;10488;50.846;4.078;2023-10-13T02:13:20;18.30;99.90
20658;DHT22;10488;50.846;4.078;2023-10-13T02:15:48;18.20;99.90
20658;DHT22;10488;50.846;4.078;2023-10-13T02:18:18;18.30;99.90
20658;DHT22;10488;50.846;4.078;2023-10-13T02:20:47;18.20;99.90
20658;DHT22;10488;50.846;4.078;2023-10-13T02:23:20;18.20;99.90
20658;DHT22;10488;50.846;4.078;2023-10-13T02:25:46;18.20;99.90
20658;DHT22;10488;50.846;4.078;2023-10-13T02:28:12;18.20;99.90
20658;DHT22;10488;50.846;4.078;2023-10-13T02:30:47;18.20;99.90
20658;DHT22;10488;50.846;4.078;2023-10-13T02:33:16;18.20;99.90
20658;DHT22;10488;50.846;4.078;2023-10-13T02:35:49;18.20;99.90
20658;DHT22;10488;50.846;4.078;2023-10-13T02:38:22;18.20;99.90
20658;DHT22;10488;50.846;4.078;2023-10-13T02:41:18;18.30;99.90
20658;DHT22;10488;50.846;4.078;2023-10-13T02:43:55;18.30;99.90
20658;DHT22;10488;50.846;4.078;2023-10-13T02:46:21;18.30;99.90
20658;DHT22;10488;50.846;4.078;2023-10-13T02:48:48;18.30;99.90
20658;DHT22;10488;50.846;4.078;2023-10-13T02:51:19;18.40;99.90
20658;DHT22;10488;50.846;4.078;2023-10-13T02:53:57;18.30;99.90
20658;DHT22;10488;50.846;4.078;2023-10-13T02:56:29;18.30;99.90
20658;DHT22;10488;50.846;4.078;2023-10-13T02:58:55;18.30;99.90
20658;DHT22;10488;50.846;4.078;2023-10-13T03:01:23;18.30;99.90
20658;DHT22;10488;50.846;4.078;2023-10-13T03:03:55;18.30;99.90
20658;DHT22;10488;50.846;4.078;2023-10-13T03:06:22;18.30;99.90
20658;DHT22;10488;50.846;4.078;2023-10-13T03:08:51;18.30;99.90
20658;DHT22;10488;50.846;4.078;2023-10-13T03:11:17;18.40;99.90
20658;DHT22;10488;50.846;4.078;2023-10-13T03:13:48;18.40;99.90
20658;DHT22;10488;50.846;4.078;2023-10-13T03:16:17;18.40;99.90
20658;DHT22;10488;50.846;4.078;2023-10-13T03:18:43;18.40;99.90
20658;DHT22;10488;50.846;4.078;2023-10-13T03:21:23;18.40;99.90
20658;DHT22;10488;50.846;4.078;2023-10-13T03:23:56;18.40;99.90
20658;DHT22;10488;50.846;4.078;2023-10-13T03:26:22;18.40;99.90
20658;DHT22;10488;50.846;4.078;2023-10-13T03:28:47;18.50;99.90
20658;DHT22;10488;50.846;4.078;2023-10-13T03:31:19;18.50;99.90
20658;DHT22;10488;50.846;4.078;2023-10-13T03:33:45;18.40;99.90
20658;DHT22;10488;50.846;4.078;2023-10-13T03:36:14;18.50;99.90
20658;DHT22;10488;50.846;4.078;2023-10-13T03:38:59;18.50;99.90
20658;DHT22;10488;50.846;4.078;2023-10-13T03:41:25;18.40;99.90
20658;DHT22;10488;50.846;4.078;2023-10-13T03:43:55;18.40;99.90
20658;DHT22;10488;50.846;4.078;2023-10-13T03:46:35;18.50;99.90
20658;DHT22;10488;50.846;4.078;2023-10-13T03:49:02;18.40;99.90
20658;DHT22;10488;50.846;4.078;2023-10-13T03:51:31;18.40;99.90
20658;DHT22;10488;50.846;4.078;2023-10-13T03:53:57;18.50;99.90
20658;DHT22;10488;50.846;4.078;2023-10-13T03:56:28;18.60;99.90
20658;DHT22;10488;50.846;4.078;2023-10-13T03:59:05;18.50;99.90
20658;DHT22;10488;50.846;4.078;2023-10-13T04:01:36;18.50;99.90
20658;DHT22;10488;50.846;4.078;2023-10-13T04:04:17;18.60;99.90
20658;DHT22;10488;50.846;4.078;2023-10-13T04:07:15;18.40;99.90
20658;DHT22;10488;50.846;4.078;2023-10-13T04:09:59;18.50;99.90
20658;DHT22;10488;50.846;4.078;2023-10-13T04:12:43;18.50;99.90
20658;DHT22;10488;50.846;4.078;2023-10-13T04:15:32;18.40;99.90
20658;DHT22;10488;50.846;4.078;2023-10-13T04:18:08;18.40;99.90
20658;DHT22;10488;50.846;4.078;2023-10-13T04:20:59;18.40;99.90
20658;DHT22;10488;50.846;4.078;2023-10-13T04:23:35;18.50;99.90
20658;DHT22;10488;50.846;4.078;2023-10-13T04:26:21;18.40;99.90
20658;DHT22;10488;50.846;4.078;2023-10-13T04:28:47;18.40;99.90
20658;DHT22;10488;50.846;4.078;2023-10-13T04:31:19;18.40;99.90
20658;DHT22;10488;50.846;4.078;2023-10-13T04:34:10;18.20;99.90
20658;DHT22;10488;50.846;4.078;2023-10-13T04:36:44;18.20;99.90
20658;DHT22;10488;50.846;4.078;2023-10-13T04:39:11;18.20;99.90
20658;DHT22;10488;50.846;4.078;2023-10-13T04:41:42;18.20;99.90
20658;DHT22;10488;50.846;4.078;2023-10-13T04:44:13;18.30;99.90
20658;DHT22;10488;50.846;4.078;2023-10-13T04:47:13;18.30;99.90
20658;DHT22;10488;50.846;4.078;2023-10-13T04:49:47;18.30;99.90
20658;DHT22;10488;50.846;4.078;2023-10-13T04:52:12;18.30;99.90
20658;DHT22;10488;50.846;4.078;2023-10-13T04:54:43;18.40;99.90
20658;DHT22;10488;50.846;4.078;2023-10-13T04:57:21;18.40;99.90
20658;DHT22;10488;50.846;4.078;2023-10-13T04:59:50;18.40;99.90
20658;DHT22;10488;50.846;4.078;2023-10-13T05:02:43;18.40;99.90
20658;DHT22;10488;50.846;4.078;2023-10-13T05:05:28;18.50;99.90
20658;DHT22;10488;50.846;4.078;2023-10-13T05:08:13;18.50;99.90
20658;DHT22;10488;50.846;4.078;2023-10-13T05:10:57;18.40;99.90
20658;DHT22;10488;50.846;4.078;2023-10-13T05:13:41;18.40;99.90
20658;DHT22;10488;50.846;4.078;2023-10-13T05:16:25;18.40;99.90
20658;DHT22;10488;50.846;4.078;2023-10-13T05:19:09;18.40;99.90
20658;DHT22;10488;50.846;4.078;2023-10-13T05:21:53;18.40;99.90
20658;DHT22;10488;50.846;4.078;2023-10-13T05:24:37;18.30;99.90
20658;DHT22;10488;50.846;4.078;2023-10-13T05:27:21;18.30;99.90
20658;DHT22;10488;50.846;4.078;2023-10-13T05:30:06;18.30;99.90
20658;DHT22;10488;50.846;4.078;2023-10-13T05:32:51;18.30;99.90
20658;DHT22;10488;50.846;4.078;2023-10-13T05:35:35;18.20;99.90
20658;DHT22;10488;50.846;4.078;2023-10-13T05:38:19;18.20;99.90
20658;DHT22;10488;50.846;4.078;2023-10-13T05:41:04;18.10;99.90
20658;DHT22;10488;50.846;4.078;2023-10-13T05:43:49;18.20;99.90
20658;DHT22;10488;50.846;4.078;2023-10-13T05:46:33;18.20;99.90
20658;DHT22;10488;50.846;4.078;2023-10-13T05:49:08;18.20;99.90
20658;DHT22;10488;50.846;4.078;2023-10-13T05:51:37;18.20;99.90
20658;DHT22;10488;50.846;4.078;2023-10-13T05:54:13;18.20;99.90
20658;DHT22;10488;50.846;4.078;2023-10-13T05:59:23;18.20;99.90
20658;DHT22;10488;50.846;4.078;2023-10-13T06:02:07;18.20;99.90
20658;DHT22;10488;50.846;4.078;2023-10-13T06:04:51;18.30;99.90
20658;DHT22;10488;50.846;4.078;2023-10-13T06:07:35;18.30;99.90
20658;DHT22;10488;50.846;4.078;2023-10-13T06:10:19;18.40;99.90
20658;DHT22;10488;50.846;4.078;2023-10-13T06:13:18;18.40;99.90
20658;DHT22;10488;50.846;4.078;2023-10-13T06:16:13;18.40;99.90
20658;DHT22;10488;50.846;4.078;2023-10-13T06:18:58;18.40;99.90
20658;DHT22;10488;50.846;4.078;2023-10-13T06:21:42;18.40;99.90
20658;DHT22;10488;50.846;4.078;2023-10-13T06:24:27;18.30;99.90
20658;DHT22;10488;50.846;4.078;2023-10-13T06:27:11;18.30;99.90
20658;DHT22;10488;50.846;4.078;2023-10-13T06:29:56;18.30;99.90
20658;DHT22;10488;50.846;4.078;2023-10-13T06:32:22;18.40;99.90
20658;DHT22;10488;50.846;4.078;2023-10-13T06:34:57;18.40;99.90
20658;DHT22;10488;50.846;4.078;2023-10-13T06:37:27;18.50;99.90
20658;DHT22;10488;50.846;4.078;2023-10-13T06:40:08;18.50;99.90
20658;DHT22;10488;50.846;4.078;2023-10-13T06:42:54;18.50;99.90
20658;DHT22;10488;50.846;4.078;2023-10-13T06:45:43;18.50;99.90
20658;DHT22;10488;50.846;4.078;2023-10-13T06:48:16;18.60;99.90
20658;DHT22;10488;50.846;4.078;2023-10-13T06:50:53;18.60;99.90
20658;DHT22;10488;50.846;4.078;2023-10-13T06:53:21;18.70;99.90
20658;DHT22;10488;50.846;4.078;2023-10-13T06:55:47;18.70;99.90
20658;DHT22;10488;50.846;4.078;2023-10-13T06:58:15;18.70;99.90
20658;DHT22;10488;50.846;4.078;2023-10-13T07:00:43;18.70;99.90
20658;DHT22;10488;50.846;4.078;2023-10-13T07:03:23;18.80;99.90
20658;DHT22;10488;50.846;4.078;2023-10-13T07:05:50;18.90;99.90
20658;DHT22;10488;50.846;4.078;2023-10-13T07:08:17;18.90;99.90
20658;DHT22;10488;50.846;4.078;2023-10-13T07:10:54;18.90;99.90
20658;DHT22;10488;50.846;4.078;2023-10-13T07:13:39;19.10;99.90
20658;DHT22;10488;50.846;4.078;2023-10-13T07:16:06;19.00;99.90
20658;DHT22;10488;50.846;4.078;2023-10-13T07:18:38;19.00;99.90
20658;DHT22;10488;50.846;4.078;2023-10-13T07:21:15;19.10;99.90
20658;DHT22;10488;50.846;4.078;2023-10-13T07:23:41;19.20;99.90
20658;DHT22;10488;50.846;4.078;2023-10-13T07:26:15;19.20;99.90
20658;DHT22;10488;50.846;4.078;2023-10-13T07:28:40;19.10;99.90
20658;DHT22;10488;50.846;4.078;2023-10-13T07:31:13;19.30;99.90
20658;DHT22;10488;50.846;4.078;2023-10-13T07:33:40;19.30;99.90
20658;DHT22;10488;50.846;4.078;2023-10-13T07:36:08;19.40;99.90
20658;DHT22;10488;50.846;4.078;2023-10-13T07:38:53;19.30;99.90
20658;DHT22;10488;50.846;4.078;2023-10-13T07:41:45;19.20;99.90
20658;DHT22;10488;50.846;4.078;2023-10-13T07:44:23;19.30;99.90
20658;DHT22;10488;50.846;4.078;2023-10-13T07:46:57;19.30;99.90
20658;DHT22;10488;50.846;4.078;2023-10-13T07:49:30;19.50;99.90
20658;DHT22;10488;50.846;4.078;2023-10-13T07:51:58;19.60;99.90
20658;DHT22;10488;50.846;4.078;2023-10-13T07:54:26;19.60;99.90
20658;DHT22;10488;50.846;4.078;2023-10-13T07:56:52;19.60;99.90
20658;DHT22;10488;50.846;4.078;2023-10-13T07:59:20;19.70;99.90
20658;DHT22;10488;50.846;4.078;2023-10-13T08:01:48;19.80;99.90
20658;DHT22;10488;50.846;4.078;2023-10-13T08:04:34;19.90;99.90
20658;DHT22;10488;50.846;4.078;2023-10-13T08:07:01;19.90;99.90
20658;DHT22;10488;50.846;4.078;2023-10-13T08:09:39;20.00;99.90
20658;DHT22;10488;50.846;4.078;2023-10-13T08:12:09;20.20;99.90
20658;DHT22;10488;50.846;4.078;2023-10-13T08:14:38;20.20;99.90
20658;DHT22;10488;50.846;4.078;2023-10-13T08:17:07;20.20;99.90
20658;DHT22;10488;50.846;4.078;2023-10-13T08:19:39;20.30;99.90
20658;DHT22;10488;50.846;4.078;2023-10-13T08:22:11;20.10;99.90
20658;DHT22;10488;50.846;4.078;2023-10-13T08:24:50;20.20;99.90
20658;DHT22;10488;50.846;4.078;2023-10-13T08:27:20;20.20;99.90
20658;DHT22;10488;50.846;4.078;2023-10-13T08:30:14;20.30;99.90
20658;DHT22;10488;50.846;4.078;2023-10-13T08:32:54;20.40;99.90
20658;DHT22;10488;50.846;4.078;2023-10-13T08:35:20;20.50;99.90
20658;DHT22;10488;50.846;4.078;2023-10-13T08:37:56;20.60;99.90
20658;DHT22;10488;50.846;4.078;2023-10-13T08:40:27;20.50;99.90
20658;DHT22;10488;50.846;4.078;2023-10-13T08:43:21;20.40;99.90
20658;DHT22;10488;50.846;4.078;2023-10-13T08:45:49;20.60;99.90
20658;DHT22;10488;50.846;4.078;2023-10-13T08:48:17;20.40;99.90
20658;DHT22;10488;50.846;4.078;2023-10-13T08:50:48;20.50;99.90
20658;DHT22;10488;50.846;4.078;2023-10-13T08:53:30;20.60;99.90
20658;DHT22;10488;50.846;4.078;2023-10-13T08:58:43;20.50;99.90
20658;DHT22;10488;50.846;4.078;2023-10-13T09:01:34;20.70;99.90
20658;DHT22;10488;50.846;4.078;2023-10-13T09:04:01;20.80;99.90
20658;DHT22;10488;50.846;4.078;2023-10-13T09:07:03;20.80;99.90
20658;DHT22;10488;50.846;4.078;2023-10-13T09:09:45;20.90;99.90
20658;DHT22;10488;50.846;4.078;2023-10-13T09:14:38;21.10;99.90
20658;DHT22;10488;50.846;4.078;2023-10-13T09:17:09;20.90;99.90
20658;DHT22;10488;50.846;4.078;2023-10-13T09:19:49;20.80;99.90
20658;DHT22;10488;50.846;4.078;2023-10-13T09:22:30;20.80;99.90
20658;DHT22;10488;50.846;4.078;2023-10-13T09:25:03;20.70;99.90
20658;DHT22;10488;50.846;4.078;2023-10-13T09:27:32;20.70;99.90
20658;DHT22;10488;50.846;4.078;2023-10-13T09:30:03;20.80;99.90
20658;DHT22;10488;50.846;4.078;2023-10-13T09:32:48;20.80;99.90
20658;DHT22;10488;50.846;4.078;2023-10-13T09:35:27;20.80;99.90
20658;DHT22;10488;50.846;4.078;2023-10-13T09:37:54;20.90;99.90
20658;DHT22;10488;50.846;4.078;2023-10-13T09:40:22;20.90;99.90
20658;DHT22;10488;50.846;4.078;2023-10-13T09:43:01;20.80;99.90
20658;DHT22;10488;50.846;4.078;2023-10-13T09:45:35;21.00;99.90
20658;DHT22;10488;50.846;4.078;2023-10-13T09:48:32;21.00;99.90
20658;DHT22;10488;50.846;4.078;2023-10-13T09:51:12;21.10;99.90
20658;DHT22;10488;50.846;4.078;2023-10-13T09:53:43;21.00;99.90
20658;DHT22;10488;50.846;4.078;2023-10-13T09:56:15;20.70;99.90
20658;DHT22;10488;50.846;4.078;2023-10-13T10:01:37;20.80;99.90
20658;DHT22;10488;50.846;4.078;2023-10-13T10:04:09;20.90;99.90
20658;DHT22;10488;50.846;4.078;2023-10-13T10:06:37;21.10;99.90
20658;DHT22;10488;50.846;4.078;2023-10-13T10:09:11;21.20;99.90
20658;DHT22;10488;50.846;4.078;2023-10-13T10:12:01;21.10;99.90
20658;DHT22;10488;50.846;4.078;2023-10-13T10:14:41;21.10;99.90
20658;DHT22;10488;50.846;4.078;2023-10-13T10:17:10;21.20;99.90
20658;DHT22;10488;50.846;4.078;2023-10-13T10:19:50;21.30;99.90
20658;DHT22;10488;50.846;4.078;2023-10-13T10:22:29;21.40;99.90
20658;DHT22;10488;50.846;4.078;2023-10-13T10:25:06;21.60;99.90
20658;DHT22;10488;50.846;4.078;2023-10-13T10:27:58;21.70;99.90
20658;DHT22;10488;50.846;4.078;2023-10-13T10:30:35;21.90;99.90
20658;DHT22;10488;50.846;4.078;2023-10-13T10:33:04;21.70;99.90
20658;DHT22;10488;50.846;4.078;2023-10-13T10:35:47;21.70;99.90
20658;DHT22;10488;50.846;4.078;2023-10-13T10:38:23;21.60;99.90
20658;DHT22;10488;50.846;4.078;2023-10-13T10:40:54;21.80;99.90
20658;DHT22;10488;50.846;4.078;2023-10-13T10:43:35;21.80;99.90
20658;DHT22;10488;50.846;4.078;2023-10-13T10:46:26;21.60;99.90
20658;DHT22;10488;50.846;4.078;2023-10-13T10:48:56;21.60;99.90
20658;DHT22;10488;50.846;4.078;2023-10-13T10:51:28;21.60;99.90
20658;DHT22;10488;50.846;4.078;2023-10-13T10:53:58;21.70;99.90
20658;DHT22;10488;50.846;4.078;2023-10-13T10:56:36;21.90;99.90
20658;DHT22;10488;50.846;4.078;2023-10-13T10:59:06;22.00;99.90
20658;DHT22;10488;50.846;4.078;2023-10-13T11:01:43;22.20;99.90
20658;DHT22;10488;50.846;4.078;2023-10-13T11:04:18;22.10;99.90
20658;DHT22;10488;50.846;4.078;2023-10-13T11:12:15;22.20;99.90
20658;DHT22;10488;50.846;4.078;2023-10-13T11:14:45;22.20;99.90
20658;DHT22;10488;50.846;4.078;2023-10-13T11:17:23;22.20;99.90
20658;DHT22;10488;50.846;4.078;2023-10-13T11:19:54;22.20;99.90
20658;DHT22;10488;50.846;4.078;2023-10-13T11:22:21;22.00;99.90
20658;DHT22;10488;50.846;4.078;2023-10-13T11:25:08;22.10;99.90
20658;DHT22;10488;50.846;4.078;2023-10-13T11:27:41;22.10;99.90
20658;DHT22;10488;50.846;4.078;2023-10-13T11:30:10;22.40;99.90
20658;DHT22;10488;50.846;4.078;2023-10-13T11:32:40;22.40;99.90
20658;DHT22;10488;50.846;4.078;2023-10-13T11:35:10;22.30;99.90
20658;DHT22;10488;50.846;4.078;2023-10-13T11:37:49;22.40;99.90
20658;DHT22;10488;50.846;4.078;2023-10-13T11:40:31;22.40;99.90
20658;DHT22;10488;50.846;4.078;2023-10-13T11:43:10;22.40;99.90
20658;DHT22;10488;50.846;4.078;2023-10-13T11:45:42;22.40;99.90
20658;DHT22;10488;50.846;4.078;2023-10-13T11:48:42;22.40;99.90
20658;DHT22;10488;50.846;4.078;2023-10-13T11:51:12;22.60;99.90
20658;DHT22;10488;50.846;4.078;2023-10-13T11:54:06;22.70;99.90
20658;DHT22;10488;50.846;4.078;2023-10-13T11:56:31;22.90;99.90
20658;DHT22;10488;50.846;4.078;2023-10-13T11:58:57;22.80;99.90
20658;DHT22;10488;50.846;4.078;2023-10-13T12:01:27;22.60;99.90
20658;DHT22;10488;50.846;4.078;2023-10-13T12:04:11;22.60;99.90
20658;DHT22;10488;50.846;4.078;2023-10-13T12:06:56;22.40;99.90
20658;DHT22;10488;50.846;4.078;2023-10-13T12:09:43;22.40;99.90
20658;DHT22;10488;50.846;4.078;2023-10-13T12:12:25;22.40;99.90
20658;DHT22;10488;50.846;4.078;2023-10-13T12:14:51;22.40;99.90
20658;DHT22;10488;50.846;4.078;2023-10-13T12:17:26;22.30;99.90
20658;DHT22;10488;50.846;4.078;2023-10-13T12:20:04;22.30;99.90
20658;DHT22;10488;50.846;4.078;2023-10-13T12:22:44;22.20;99.90
20658;DHT22;10488;50.846;4.078;2023-10-13T12:25:25;22.20;99.90
20658;DHT22;10488;50.846;4.078;2023-10-13T12:27:53;22.20;99.90
20658;DHT22;10488;50.846;4.078;2023-10-13T12:30:24;22.20;99.90
20658;DHT22;10488;50.846;4.078;2023-10-13T12:33:14;22.10;99.90
20658;DHT22;10488;50.846;4.078;2023-10-13T12:35:42;22.10;99.90
20658;DHT22;10488;50.846;4.078;2023-10-13T12:38:29;22.20;99.90
20658;DHT22;10488;50.846;4.078;2023-10-13T12:41:22;22.30;99.90
20658;DHT22;10488;50.846;4.078;2023-10-13T12:44:07;22.30;99.90
20658;DHT22;10488;50.846;4.078;2023-10-13T12:46:51;22.30;99.90
20658;DHT22;10488;50.846;4.078;2023-10-13T12:49:36;22.30;99.90
20658;DHT22;10488;50.846;4.078;2023-10-13T12:52:12;22.30;99.90
20658;DHT22;10488;50.846;4.078;2023-10-13T12:54:57;22.40;99.90
20658;DHT22;10488;50.846;4.078;2023-10-13T12:57:27;22.30;99.90
20658;DHT22;10488;50.846;4.078;2023-10-13T12:59:53;22.40;99.90
20658;DHT22;10488;50.846;4.078;2023-10-13T13:02:24;22.50;99.90
20658;DHT22;10488;50.846;4.078;2023-10-13T13:04:56;22.50;99.90
20658;DHT22;10488;50.846;4.078;2023-10-13T13:07:27;22.60;99.90
20658;DHT22;10488;50.846;4.078;2023-10-13T13:09:55;22.50;99.90
20658;DHT22;10488;50.846;4.078;2023-10-13T13:12:24;22.40;99.90
20658;DHT22;10488;50.846;4.078;2023-10-13T13:14:50;22.40;99.90
20658;DHT22;10488;50.846;4.078;2023-10-13T13:17:21;22.50;99.90
20658;DHT22;10488;50.846;4.078;2023-10-13T13:19:46;22.60;99.90
20658;DHT22;10488;50.846;4.078;2023-10-13T13:22:12;22.60;99.90
20658;DHT22;10488;50.846;4.078;2023-10-13T13:24:39;22.70;99.90
20658;DHT22;10488;50.846;4.078;2023-10-13T13:27:13;22.80;99.90
20658;DHT22;10488;50.846;4.078;2023-10-13T13:29:42;22.80;99.90
20658;DHT22;10488;50.846;4.078;2023-10-13T13:32:08;22.80;99.90
20658;DHT22;10488;50.846;4.078;2023-10-13T13:34:44;22.80;99.90
20658;DHT22;10488;50.846;4.078;2023-10-13T13:37:10;22.80;99.90
20658;DHT22;10488;50.846;4.078;2023-10-13T13:39:38;22.80;99.90
20658;DHT22;10488;50.846;4.078;2023-10-13T13:42:09;22.80;99.90
20658;DHT22;10488;50.846;4.078;2023-10-13T13:44:35;22.80;99.90
20658;DHT22;10488;50.846;4.078;2023-10-13T13:47:04;22.90;99.90
20658;DHT22;10488;50.846;4.078;2023-10-13T13:49:38;22.90;99.90
20658;DHT22;10488;50.846;4.078;2023-10-13T13:52:12;23.00;99.90
20658;DHT22;10488;50.846;4.078;2023-10-13T13:54:43;23.10;99.90
20658;DHT22;10488;50.846;4.078;2023-10-13T13:57:09;23.20;99.90
20658;DHT22;10488;50.846;4.078;2023-10-13T13:59:35;23.10;99.90
20658;DHT22;10488;50.846;4.078;2023-10-13T14:02:04;22.90;99.90
20658;DHT22;10488;50.846;4.078;2023-10-13T14:04:46;22.90;99.90
20658;DHT22;10488;50.846;4.078;2023-10-13T14:07:13;22.90;99.90
20658;DHT22;10488;50.846;4.078;2023-10-13T14:09:40;22.80;99.90
20658;DHT22;10488;50.846;4.078;2023-10-13T14:12:09;22.70;99.90
20658;DHT22;10488;50.846;4.078;2023-10-13T14:15:13;22.60;99.90
20658;DHT22;10488;50.846;4.078;2023-10-13T14:17:50;22.60;99.90
20658;DHT22;10488;50.846;4.078;2023-10-13T14:20:16;22.50;99.90
20658;DHT22;10488;50.846;4.078;2023-10-13T14:22:45;22.70;99.90
20658;DHT22;10488;50.846;4.078;2023-10-13T14:25:13;22.70;99.90
20658;DHT22;10488;50.846;4.078;2023-10-13T14:27:43;22.60;99.90
20658;DHT22;10488;50.846;4.078;2023-10-13T14:30:09;22.60;99.90
20658;DHT22;10488;50.846;4.078;2023-10-13T14:32:35;22.50;99.90
20658;DHT22;10488;50.846;4.078;2023-10-13T14:35:06;22.40;99.90
20658;DHT22;10488;50.846;4.078;2023-10-13T14:37:40;22.50;99.90
20658;DHT22;10488;50.846;4.078;2023-10-13T14:40:07;22.40;99.90
20658;DHT22;10488;50.846;4.078;2023-10-13T14:42:38;22.40;99.90
20658;DHT22;10488;50.846;4.078;2023-10-13T14:45:06;22.40;99.90
20658;DHT22;10488;50.846;4.078;2023-10-13T14:47:47;22.40;99.90
20658;DHT22;10488;50.846;4.078;2023-10-13T14:50:13;22.30;99.90
20658;DHT22;10488;50.846;4.078;2023-10-13T14:52:48;22.20;99.90
20658;DHT22;10488;50.846;4.078;2023-10-13T14:55:15;22.10;99.90
20658;DHT22;10488;50.846;4.078;2023-10-13T14:57:50;22.00;99.90
20658;DHT22;10488;50.846;4.078;2023-10-13T15:00:16;22.00;99.90
20658;DHT22;10488;50.846;4.078;2023-10-13T15:02:51;22.00;99.90
20658;DHT22;10488;50.846;4.078;2023-10-13T15:05:16;22.00;99.90
20658;DHT22;10488;50.846;4.078;2023-10-13T15:07:43;22.00;99.90
20658;DHT22;10488;50.846;4.078;2023-10-13T15:10:12;21.90;99.90
20658;DHT22;10488;50.846;4.078;2023-10-13T15:12:43;21.70;99.90
20658;DHT22;10488;50.846;4.078;2023-10-13T15:15:12;21.70;99.90
20658;DHT22;10488;50.846;4.078;2023-10-13T15:17:45;21.60;99.90
20658;DHT22;10488;50.846;4.078;2023-10-13T15:20:11;21.50;99.90
20658;DHT22;10488;50.846;4.078;2023-10-13T15:22:44;21.50;99.90
20658;DHT22;10488;50.846;4.078;2023-10-13T15:25:10;21.40;99.90
20658;DHT22;10488;50.846;4.078;2023-10-13T15:28:01;21.50;99.90
20658;DHT22;10488;50.846;4.078;2023-10-13T15:30:33;21.40;99.90
20658;DHT22;10488;50.846;4.078;2023-10-13T15:33:21;21.50;99.90
20658;DHT22;10488;50.846;4.078;2023-10-13T15:35:46;21.40;99.90
20658;DHT22;10488;50.846;4.078;2023-10-13T15:38:12;21.40;99.90
20658;DHT22;10488;50.846;4.078;2023-10-13T15:40:44;21.40;99.90
20658;DHT22;10488;50.846;4.078;2023-10-13T15:43:11;21.40;99.90
20658;DHT22;10488;50.846;4.078;2023-10-13T15:45:36;21.50;99.90
20658;DHT22;10488;50.846;4.078;2023-10-13T15:48:05;21.40;99.90
20658;DHT22;10488;50.846;4.078;2023-10-13T15:50:38;21.40;99.90
20658;DHT22;10488;50.846;4.078;2023-10-13T15:53:06;21.20;99.90
20658;DHT22;10488;50.846;4.078;2023-10-13T15:55:35;21.20;99.90
20658;DHT22;10488;50.846;4.078;2023-10-13T15:58:04;21.00;99.90
20658;DHT22;10488;50.846;4.078;2023-10-13T16:00:35;20.90;99.90
20658;DHT22;10488;50.846;4.078;2023-10-13T16:03:02;20.90;99.90
20658;DHT22;10488;50.846;4.078;2023-10-13T16:05:30;20.80;99.90
20658;DHT22;10488;50.846;4.078;2023-10-13T16:08:00;20.70;99.90
20658;DHT22;10488;50.846;4.078;2023-10-13T16:10:26;20.60;99.90
20658;DHT22;10488;50.846;4.078;2023-10-13T16:12:52;20.60;99.90
20658;DHT22;10488;50.846;4.078;2023-10-13T16:15:18;20.60;99.90
20658;DHT22;10488;50.846;4.078;2023-10-13T16:17:47;20.50;99.90
20658;DHT22;10488;50.846;4.078;2023-10-13T16:20:13;20.50;99.90
20658;DHT22;10488;50.846;4.078;2023-10-13T16:22:45;20.50;99.90
20658;DHT22;10488;50.846;4.078;2023-10-13T16:25:12;20.50;99.90
20658;DHT22;10488;50.846;4.078;2023-10-13T16:27:42;20.40;99.90
20658;DHT22;10488;50.846;4.078;2023-10-13T16:30:10;20.30;99.90